KBIS/BIS METAR and TAF weather

Enter ICAO airport designator
Station Type Date Time Source
KBIS METAR 2019/12/13 13:52 UTC NOAA

KBIS 131352Z 31008KT 6SM BR OVC012 M03/M05 A2974 RMK AO2 SLP100 T10281050


Station Type Date Time Source
KBIS Decoded METAR 2019/12/13 13:52 UTC NOAA

BISMARCK MUNICIPAL AIRPORT, ND, United States (KBIS) 46-47N 100-45W 503M
Dec 13, 2019 - 08:52 AM EST / 2019.12.13 1352 UTC
Wind: from the NW (310 degrees) at 9 MPH (8 KT):0
Visibility: 6 mile(s):0
Sky conditions: overcast
Weather: mist
Temperature: 27.0 F (-2.8 C)
Windchill: 17 F (-8 C):1
Dew Point: 23.0 F (-5.0 C)
Relative Humidity: 84%
Pressure (altimeter): 29.74 in. Hg (1007 hPa)
ob: KBIS 131352Z 31008KT 6SM BR OVC012 M03/M05 A2974 RMK AO2 SLP100 T10281050
cycle: 14

Station Type Date Time Source
KBIS TAF 2019/12/13 13:57 UTC NOAA

TAF
AMD KBIS 131254Z 1313/1412 26003KT P6SM VCSH BKN019 OVC100
FM131500 32009KT P6SM VCSH OVC008
FM131700 32011G20KT P6SM OVC011
FM132300 33011KT P6SM BKN021
FM140400 33009KT P6SM SCT030

Example: see airport list